Time;durP1;ratioP1;P1;durP2;ratioP2;P2;SDS_P1;SDS_P2;PMS_P1;PMS_P2;Temp;Humidity;BMP_temperature;BMP_pressure;BME280_temperature;BME280_humidity;BME280_pressure;Samples;Min_cycle;Max_cycle;Signal;HPM_P1;HPM_P2
2022/04/05 00:00:20;;;;;;;8.95;0.88;;;6.10;99.90;;;;;;4951168;28;20066;-77
2022/04/05 00:02:46;;;;;;;6.38;2.22;;;6.10;99.90;;;;;;4968528;28;20082;-73
2022/04/05 00:05:11;;;;;;;10.82;1.02;;;6.10;99.90;;;;;;4968133;28;20377;-73
2022/04/05 00:07:37;;;;;;;4.50;0.70;;;6.10;99.90;;;;;;4983174;28;20038;-74
2022/04/05 00:10:03;;;;;;;3.78;1.52;;;6.10;99.90;;;;;;4965802;28;20505;-73
2022/04/05 00:12:28;;;;;;;5.80;1.25;;;6.10;99.90;;;;;;4982138;28;20027;-77
2022/04/05 00:14:54;;;;;;;7.53;1.52;;;6.10;99.90;;;;;;4951442;28;20063;-74
2022/04/05 00:17:19;;;;;;;15.68;2.10;;;6.10;99.90;;;;;;4962721;28;20039;-76
2022/04/05 00:19:46;;;;;;;5.55;1.52;;;6.10;99.90;;;;;;4951287;28;20031;-74
2022/04/05 00:22:12;;;;;;;9.85;2.05;;;6.10;99.90;;;;;;4968469;28;20027;-75
2022/04/05 00:24:38;;;;;;;13.35;2.22;;;6.10;99.90;;;;;;4968887;28;20116;-74
2022/04/05 00:27:04;;;;;;;3.83;1.50;;;6.00;99.90;;;;;;4950374;28;20058;-75
2022/04/05 00:29:29;;;;;;;3.80;1.33;;;6.00;99.90;;;;;;4968535;28;20094;-77
2022/04/05 00:31:55;;;;;;;17.15;1.65;;;6.00;99.90;;;;;;4968567;28;20034;-76
2022/04/05 00:34:25;;;;;;;3.38;1.48;;;5.90;99.90;;;;;;4964308;28;20038;-75
2022/04/05 00:36:53;;;;;;;4.53;1.05;;;6.00;99.90;;;;;;4982418;28;20097;-75
2022/04/05 00:39:20;;;;;;;3.67;1.25;;;5.90;99.90;;;;;;4966613;28;20035;-76
2022/04/05 00:41:47;;;;;;;10.88;1.38;;;5.90;99.90;;;;;;4965354;28;20455;-76
2022/04/05 00:44:14;;;;;;;6.05;0.80;;;5.90;99.90;;;;;;4969412;28;20039;-75
2022/04/05 00:46:40;;;;;;;2.50;0.95;;;5.90;99.90;;;;;;4968206;28;20031;-74
2022/04/05 00:49:05;;;;;;;3.63;1.40;;;5.90;99.90;;;;;;4975368;28;20037;-73
2022/04/05 00:51:31;;;;;;;4.05;0.75;;;5.90;99.90;;;;;;4982162;28;20027;-78
2022/04/05 00:54:04;;;;;;;6.15;1.13;;;5.90;99.90;;;;;;4981889;28;20039;-73
2022/04/05 00:56:34;;;;;;;4.88;0.70;;;6.00;99.90;;;;;;4981135;28;20166;-75
2022/04/05 00:59:00;;;;;;;3.83;0.93;;;5.90;99.90;;;;;;4981941;28;20026;-76
2022/04/05 01:01:28;;;;;;;12.30;1.27;;;5.90;99.90;;;;;;4967280;28;20027;-75
2022/04/05 01:03:54;;;;;;;6.22;1.33;;;6.10;99.90;;;;;;4963904;28;20480;-75
2022/04/05 01:06:24;;;;;;;4.10;0.95;;;5.90;99.90;;;;;;4967891;28;20086;-74
2022/04/05 01:08:56;;;;;;;5.63;1.15;;;5.90;99.90;;;;;;4981573;28;20070;-77
2022/04/05 01:11:21;;;;;;;6.80;1.83;;;5.90;99.90;;;;;;4981839;28;20045;-75
2022/04/05 01:13:47;;;;;;;5.45;1.08;;;5.90;99.90;;;;;;4967323;28;20063;-75
2022/04/05 01:16:14;;;;;;;5.75;1.33;;;5.90;99.90;;;;;;4950379;28;20031;-76
2022/04/05 01:18:47;;;;;;;7.13;1.05;;;6.00;99.90;;;;;;4967366;28;20032;-75
2022/04/05 01:21:14;;;;;;;6.88;1.33;;;6.00;99.90;;;;;;4967260;28;20649;-75
2022/04/05 01:24:05;;;;;;;4.10;1.13;;;5.90;99.90;;;;;;4950349;28;20055;-75
2022/04/05 01:26:41;;;;;;;3.08;0.82;;;6.00;99.90;;;;;;4959773;28;20043;-74
2022/04/05 01:29:07;;;;;;;7.60;1.70;;;6.00;99.90;;;;;;4967746;28;20047;-74
2022/04/05 01:31:54;;;;;;;9.38;1.33;;;6.00;99.90;;;;;;4967534;28;20577;-75
2022/04/05 01:34:22;;;;;;;1.80;0.88;;;6.00;99.90;;;;;;4976821;28;20089;-74
2022/04/05 01:36:52;;;;;;;4.25;1.40;;;6.00;99.90;;;;;;4966474;28;20564;-74
2022/04/05 01:39:23;;;;;;;3.63;1.63;;;6.00;99.90;;;;;;4966786;28;20051;-74
2022/04/05 01:41:55;;;;;;;3.88;1.27;;;6.00;99.90;;;;;;4966749;28;20399;-74
2022/04/05 01:44:21;;;;;;;8.13;1.85;;;6.00;99.90;;;;;;4981206;28;20035;-74
2022/04/05 01:46:49;;;;;;;5.75;0.98;;;6.00;99.90;;;;;;4981850;28;20087;-77
2022/04/05 01:49:15;;;;;;;0.60;0.55;;;6.00;99.90;;;;;;4981658;28;20031;-76
2022/04/05 01:51:42;;;;;;;5.13;1.30;;;5.90;99.90;;;;;;4981626;28;20078;-74
2022/04/05 01:54:15;;;;;;;2.45;0.98;;;5.80;99.90;;;;;;4967208;28;20026;-74
2022/04/05 01:56:43;;;;;;;11.55;1.08;;;5.80;99.90;;;;;;4966296;28;20027;-73
2022/04/05 01:59:10;;;;;;;1.27;0.45;;;5.70;99.90;;;;;;4965865;28;20078;-75
2022/04/05 02:01:36;;;;;;;1.92;0.60;;;5.70;99.90;;;;;;4981670;28;20029;-72
2022/04/05 02:04:02;;;;;;;3.72;0.90;;;5.70;99.90;;;;;;4981549;28;20066;-74
2022/04/05 02:06:28;;;;;;;4.63;0.63;;;5.70;99.90;;;;;;4981461;28;20870;-73
2022/04/05 02:08:54;;;;;;;2.50;1.20;;;5.70;99.90;;;;;;4965400;28;20042;-75
2022/04/05 02:11:19;;;;;;;3.70;0.90;;;5.60;99.90;;;;;;4981666;28;20133;-75
2022/04/05 02:13:45;;;;;;;6.85;0.57;;;5.60;99.90;;;;;;4980842;28;20031;-74
2022/04/05 02:16:13;;;;;;;7.25;0.95;;;5.50;99.90;;;;;;4948905;28;20031;-72
2022/04/05 02:18:38;;;;;;;0.80;0.35;;;5.50;99.90;;;;;;4965722;28;20024;-70
2022/04/05 02:21:05;;;;;;;1.45;0.80;;;5.50;99.90;;;;;;4965536;28;20169;-72
2022/04/05 02:23:31;;;;;;;4.45;0.75;;;5.50;99.90;;;;;;4965062;28;20070;-72
2022/04/05 02:25:57;;;;;;;7.97;0.82;;;5.50;99.90;;;;;;4965453;28;20030;-74
2022/04/05 02:28:23;;;;;;;2.92;1.15;;;5.50;99.90;;;;;;4965683;28;20059;-73
2022/04/05 02:30:49;;;;;;;2.30;0.98;;;5.50;99.90;;;;;;4965930;28;20116;-74
2022/04/05 02:33:15;;;;;;;4.88;0.60;;;5.50;99.90;;;;;;4965597;28;20031;-71
2022/04/05 02:35:40;;;;;;;11.73;1.55;;;5.50;99.90;;;;;;4966161;28;20051;-74
2022/04/05 02:38:14;;;;;;;10.80;1.33;;;5.50;99.90;;;;;;4966029;28;20479;-74
2022/04/05 02:40:42;;;;;;;1.15;0.80;;;5.40;99.90;;;;;;4966055;28;20028;-72
2022/04/05 02:43:07;;;;;;;5.47;0.52;;;5.50;99.90;;;;;;4965961;28;20038;-72
2022/04/05 02:45:33;;;;;;;1.52;0.90;;;5.40;99.90;;;;;;4965906;28;20023;-72
2022/04/05 02:48:00;;;;;;;1.60;0.50;;;5.40;99.90;;;;;;4965238;28;20059;-73
2022/04/05 02:50:26;;;;;;;5.35;0.90;;;5.40;99.90;;;;;;4965914;28;20055;-73
2022/04/05 02:52:52;;;;;;;6.07;0.75;;;5.40;99.90;;;;;;4965304;28;20038;-74
2022/04/05 02:55:18;;;;;;;13.73;0.98;;;5.40;99.90;;;;;;4948318;28;20028;-73
2022/04/05 02:57:45;;;;;;;12.95;0.73;;;5.40;99.90;;;;;;4965547;28;20079;-75
2022/04/05 03:00:15;;;;;;;3.28;0.63;;;5.50;99.90;;;;;;4948341;28;20027;-71
2022/04/05 03:02:42;;;;;;;0.20;0.15;;;5.50;99.90;;;;;;4965547;28;20057;-71
2022/04/05 03:05:19;;;;;;;6.95;0.95;;;5.50;99.90;;;;;;4965469;28;20043;-73
2022/04/05 03:07:45;;;;;;;8.05;1.38;;;5.50;99.90;;;;;;4964969;28;20031;-72
2022/04/05 03:10:12;;;;;;;7.22;0.52;;;5.60;99.90;;;;;;4965221;28;20034;-73
2022/04/05 03:12:38;;;;;;;4.28;1.33;;;5.40;99.90;;;;;;4981507;28;20038;-70
2022/04/05 03:15:06;;;;;;;3.30;0.93;;;5.50;99.90;;;;;;4981269;28;20890;-73
2022/04/05 03:17:32;;;;;;;1.33;0.57;;;5.40;99.90;;;;;;4980928;28;20023;-73
2022/04/05 03:19:59;;;;;;;1.75;0.52;;;5.50;99.90;;;;;;4981159;28;20395;-73
2022/04/05 03:22:25;;;;;;;7.85;1.95;;;5.50;99.90;;;;;;4980702;28;20034;-72
2022/04/05 03:24:51;;;;;;;1.83;0.85;;;5.40;99.90;;;;;;4981500;28;20251;-73
2022/04/05 03:27:17;;;;;;;4.90;1.20;;;5.50;99.90;;;;;;4984149;28;20038;-74
2022/04/05 03:29:42;;;;;;;12.13;2.30;;;5.50;99.90;;;;;;4984208;28;20023;-72
2022/04/05 03:32:15;;;;;;;5.68;0.93;;;5.40;99.90;;;;;;4984486;28;20122;-71
2022/04/05 03:34:43;;;;;;;5.18;0.65;;;5.30;99.90;;;;;;4983962;28;20118;-72
2022/04/05 03:37:10;;;;;;;0.25;0.25;;;5.30;99.90;;;;;;4966400;28;20034;-72
2022/04/05 03:39:36;;;;;;;6.50;0.93;;;5.30;99.90;;;;;;4984340;28;20039;-74
2022/04/05 03:42:02;;;;;;;7.50;1.17;;;5.30;99.90;;;;;;4984336;28;20085;-71
2022/04/05 03:44:28;;;;;;;13.65;1.77;;;5.30;99.90;;;;;;4968275;28;20047;-71
2022/04/05 03:46:56;;;;;;;3.05;0.68;;;5.30;99.90;;;;;;4966449;28;20031;-71
2022/04/05 03:49:22;;;;;;;2.15;1.40;;;5.30;99.90;;;;;;4984250;28;20078;-71
2022/04/05 03:51:52;;;;;;;2.38;0.65;;;5.40;99.90;;;;;;4984137;28;20027;-72
2022/04/05 03:54:18;;;;;;;0.75;0.40;;;5.30;99.90;;;;;;4984029;28;20027;-72
2022/04/05 03:56:44;;;;;;;3.83;0.90;;;5.20;99.90;;;;;;4983912;28;20034;-72
2022/04/05 03:59:10;;;;;;;5.25;0.68;;;5.30;99.90;;;;;;4984812;28;20053;-72
2022/04/05 04:01:39;;;;;;;2.10;0.77;;;5.20;99.90;;;;;;4984699;28;20027;-75
2022/04/05 04:04:05;;;;;;;6.30;0.47;;;5.20;99.90;;;;;;4983867;28;20036;-73
2022/04/05 04:06:31;;;;;;;5.38;1.33;;;5.30;99.90;;;;;;4967786;28;20042;-71
2022/04/05 04:08:57;;;;;;;1.65;0.65;;;5.30;99.90;;;;;;4967644;28;20074;-74
2022/04/05 04:11:23;;;;;;;16.60;1.23;;;5.30;99.90;;;;;;4982012;28;20053;-72
2022/04/05 04:13:49;;;;;;;7.55;0.90;;;5.30;99.90;;;;;;4968169;28;20031;-73
2022/04/05 04:16:14;;;;;;;2.70;0.70;;;5.30;99.90;;;;;;4968115;28;20035;-73
2022/04/05 04:18:40;;;;;;;10.50;1.17;;;5.30;99.90;;;;;;4967036;28;20037;-73
2022/04/05 04:21:06;;;;;;;10.18;0.90;;;5.20;99.90;;;;;;4967259;28;20027;-73
2022/04/05 04:23:31;;;;;;;8.70;1.00;;;5.20;99.90;;;;;;4967121;28;20051;-71
2022/04/05 04:25:57;;;;;;;12.25;0.75;;;5.20;99.90;;;;;;4966751;28;20027;-73
2022/04/05 04:28:22;;;;;;;17.45;0.90;;;5.20;99.90;;;;;;4949617;28;20397;-71
2022/04/05 04:31:16;;;;;;;1.38;0.40;;;5.20;99.90;;;;;;4949432;28;20026;-73
2022/04/05 04:33:42;;;;;;;8.68;1.52;;;5.20;99.90;;;;;;4966578;28;20040;-72
2022/04/05 04:36:07;;;;;;;12.40;0.82;;;5.20;99.90;;;;;;4966414;28;20027;-70
2022/04/05 04:38:33;;;;;;;0.80;0.50;;;5.20;99.90;;;;;;4966351;28;20027;-70
2022/04/05 04:40:59;;;;;;;2.60;0.80;;;5.20;99.90;;;;;;4949154;28;20176;-71
2022/04/05 04:43:27;;;;;;;1.98;0.30;;;5.20;99.90;;;;;;4949442;28;20031;-71
2022/04/05 04:45:53;;;;;;;2.63;0.95;;;5.20;99.90;;;;;;4966677;28;20027;-72
2022/04/05 04:48:19;;;;;;;3.63;0.93;;;5.20;99.90;;;;;;4966272;28;20035;-72
2022/04/05 04:50:47;;;;;;;2.72;1.30;;;5.20;99.90;;;;;;4966583;28;20094;-71
2022/04/05 04:53:13;;;;;;;5.15;0.85;;;5.20;99.90;;;;;;4966366;28;20062;-74
2022/04/05 04:55:39;;;;;;;4.88;0.70;;;5.10;99.90;;;;;;4949372;28;20039;-73
2022/04/05 04:58:05;;;;;;;8.65;1.27;;;5.20;99.90;;;;;;4966461;28;20082;-72
2022/04/05 05:00:31;;;;;;;7.75;1.00;;;5.20;99.90;;;;;;4965772;28;20035;-70
2022/04/05 05:02:56;;;;;;;10.50;1.02;;;5.10;99.90;;;;;;4950743;28;20592;-71
2022/04/05 05:05:22;;;;;;;4.60;1.63;;;5.20;99.90;;;;;;4966523;28;20484;-70
2022/04/05 05:07:50;;;;;;;2.47;0.90;;;5.20;99.90;;;;;;4965663;28;20087;-71
2022/04/05 05:10:19;;;;;;;0.30;0.30;;;5.30;99.90;;;;;;4966166;28;20023;-71
2022/04/05 05:12:46;;;;;;;2.28;0.82;;;5.20;99.90;;;;;;4958629;28;20039;-70
2022/04/05 05:15:15;;;;;;;4.25;0.85;;;5.20;99.90;;;;;;4965829;28;20081;-70
2022/04/05 05:17:41;;;;;;;0.65;0.52;;;5.30;99.90;;;;;;4965866;28;20909;-72
2022/04/05 05:20:07;;;;;;;6.05;0.98;;;5.30;99.90;;;;;;4956183;28;20059;-69
2022/04/05 05:22:33;;;;;;;13.63;1.88;;;5.30;99.90;;;;;;4966076;28;20062;-70
2022/04/05 05:24:59;;;;;;;1.92;0.63;;;5.20;99.90;;;;;;4965957;28;20055;-72
2022/04/05 05:27:25;;;;;;;5.80;1.00;;;5.30;99.90;;;;;;4967265;28;20099;-70
2022/04/05 05:29:50;;;;;;;5.38;1.27;;;5.30;99.90;;;;;;4964951;28;20256;-71
2022/04/05 05:32:16;;;;;;;2.97;0.60;;;5.30;99.90;;;;;;4965352;28;20034;-70
2022/04/05 05:34:42;;;;;;;5.85;0.63;;;5.30;99.90;;;;;;4964489;28;20030;-72
2022/04/05 05:37:08;;;;;;;6.68;2.05;;;5.40;99.90;;;;;;4947708;28;20034;-71
2022/04/05 05:39:36;;;;;;;8.27;1.60;;;5.40;99.90;;;;;;4965012;28;20015;-74
2022/04/05 05:42:06;;;;;;;6.10;1.33;;;5.40;99.90;;;;;;4967648;28;20140;-70
2022/04/05 05:44:32;;;;;;;5.30;0.90;;;5.40;99.90;;;;;;4965317;28;20050;-71
2022/04/05 05:46:58;;;;;;;6.93;1.15;;;5.50;99.90;;;;;;4968526;28;20079;-70
2022/04/05 05:49:27;;;;;;;5.85;1.05;;;5.50;99.90;;;;;;4959854;28;20058;-70
2022/04/05 05:51:52;;;;;;;4.13;0.80;;;5.50;99.90;;;;;;4983358;28;20061;-70
2022/04/05 05:54:19;;;;;;;2.47;1.05;;;5.50;99.90;;;;;;4967202;28;20031;-71
2022/04/05 05:56:44;;;;;;;2.55;0.73;;;5.60;99.90;;;;;;4983975;28;20026;-71
2022/04/05 05:59:11;;;;;;;2.47;0.50;;;5.70;99.90;;;;;;4984393;28;20037;-70
2022/04/05 06:01:37;;;;;;;4.47;1.25;;;5.70;99.90;;;;;;4984643;28;20035;-71
2022/04/05 06:04:04;;;;;;;6.18;1.50;;;5.70;99.90;;;;;;4983367;28;20050;-70
2022/04/05 06:06:29;;;;;;;0.98;0.45;;;5.80;99.90;;;;;;4966953;28;20027;-71
2022/04/05 06:08:55;;;;;;;2.70;1.25;;;5.90;99.90;;;;;;4966963;28;20034;-71
2022/04/05 06:11:22;;;;;;;3.95;1.00;;;5.80;99.90;;;;;;4964140;28;20070;-71
2022/04/05 06:13:48;;;;;;;6.05;1.23;;;5.80;99.90;;;;;;4963988;28;20027;-70
2022/04/05 06:16:14;;;;;;;5.25;1.98;;;5.80;99.90;;;;;;4984177;28;20457;-72
2022/04/05 06:18:44;;;;;;;9.90;2.08;;;5.80;99.90;;;;;;4983947;28;20023;-71
2022/04/05 06:21:10;;;;;;;2.92;1.42;;;5.90;99.90;;;;;;4966623;28;20066;-71
2022/04/05 06:23:36;;;;;;;7.78;1.48;;;5.90;99.90;;;;;;4965029;28;20127;-72
2022/04/05 06:26:01;;;;;;;14.75;1.17;;;6.00;99.90;;;;;;4962950;28;20031;-71
2022/04/05 06:28:29;;;;;;;7.05;0.85;;;6.00;99.90;;;;;;4966782;28;20062;-73
2022/04/05 06:30:55;;;;;;;2.42;1.25;;;6.00;99.90;;;;;;4964205;28;20033;-72
2022/04/05 06:33:22;;;;;;;9.63;1.13;;;6.00;99.90;;;;;;4964656;28;20063;-70
2022/04/05 06:35:53;;;;;;;9.63;1.27;;;6.10;99.90;;;;;;4982782;28;20499;-72
2022/04/05 06:38:19;;;;;;;3.80;1.08;;;6.10;99.90;;;;;;4977006;28;20035;-71
2022/04/05 06:40:46;;;;;;;6.00;1.77;;;6.10;99.90;;;;;;4964330;28;20031;-70
2022/04/05 06:43:21;;;;;;;9.60;1.38;;;6.20;99.90;;;;;;4982287;28;20075;-73
2022/04/05 06:45:47;;;;;;;5.40;1.40;;;6.30;99.90;;;;;;4967385;28;20042;-71
2022/04/05 06:48:14;;;;;;;7.72;1.33;;;6.40;99.90;;;;;;4964438;28;20094;-71
2022/04/05 06:50:42;;;;;;;8.98;0.98;;;6.40;99.90;;;;;;4964503;28;20027;-71
2022/04/05 06:53:09;;;;;;;13.77;1.38;;;6.40;99.90;;;;;;4964252;28;20043;-72
2022/04/05 06:55:36;;;;;;;4.70;1.92;;;6.50;99.90;;;;;;4964475;28;20087;-71
2022/04/05 06:58:02;;;;;;;11.38;1.83;;;6.50;99.90;;;;;;4964537;28;20090;-72
2022/04/05 07:00:28;;;;;;;6.70;1.75;;;6.50;99.90;;;;;;4965851;28;20026;-72
2022/04/05 07:02:58;;;;;;;8.25;2.05;;;6.60;99.90;;;;;;4969134;28;20660;-74
2022/04/05 07:05:24;;;;;;;7.15;1.33;;;6.60;99.90;;;;;;4967575;28;20035;-70
2022/04/05 07:07:50;;;;;;;13.52;1.55;;;6.70;99.90;;;;;;4968184;28;20518;-72
2022/04/05 07:10:17;;;;;;;8.40;1.13;;;6.70;99.90;;;;;;4969730;28;20023;-71
2022/04/05 07:12:47;;;;;;;7.22;1.13;;;6.70;99.90;;;;;;4968538;28;20046;-72
2022/04/05 07:15:13;;;;;;;9.70;1.90;;;6.70;99.90;;;;;;4948933;28;20063;-70
2022/04/05 07:17:40;;;;;;;4.85;1.80;;;6.70;99.90;;;;;;4985656;28;20090;-70
2022/04/05 07:20:08;;;;;;;10.30;1.67;;;6.70;99.90;;;;;;4977844;28;20023;-71
2022/04/05 07:22:35;;;;;;;2.13;0.98;;;6.80;99.90;;;;;;4969888;28;20027;-72
2022/04/05 07:25:01;;;;;;;8.93;1.48;;;6.90;99.90;;;;;;4969308;28;20030;-71
2022/04/05 07:27:27;;;;;;;4.93;1.48;;;6.90;99.90;;;;;;4970123;28;20050;-72
2022/04/05 07:29:52;;;;;;;3.00;0.63;;;7.00;99.90;;;;;;4968159;28;20031;-70
2022/04/05 07:32:23;;;;;;;3.63;1.23;;;7.00;99.90;;;;;;4950278;28;20065;-70
2022/04/05 07:34:48;;;;;;;4.65;1.20;;;7.10;99.90;;;;;;4956022;28;20034;-74
2022/04/05 07:37:15;;;;;;;5.00;0.98;;;7.10;99.90;;;;;;4975327;28;20023;-72
2022/04/05 07:39:42;;;;;;;14.30;1.55;;;7.20;99.90;;;;;;4987210;28;20046;-71
2022/04/05 07:42:08;;;;;;;1.42;0.85;;;7.20;99.90;;;;;;4984862;28;20499;-71
2022/04/05 07:44:34;;;;;;;6.78;0.60;;;7.20;99.90;;;;;;4974421;28;20062;-74
2022/04/05 07:47:00;;;;;;;3.58;0.88;;;7.20;99.90;;;;;;4981791;28;20026;-72
2022/04/05 07:49:26;;;;;;;6.10;0.70;;;7.30;99.90;;;;;;4951237;29;20123;-72
2022/04/05 07:51:52;;;;;;;6.28;1.48;;;7.40;99.90;;;;;;4983792;28;20030;-73
2022/04/05 07:54:18;;;;;;;10.63;1.48;;;7.60;99.90;;;;;;4968294;28;20034;-72
2022/04/05 07:56:43;;;;;;;7.00;1.20;;;7.60;99.90;;;;;;4976791;28;20070;-73
2022/04/05 07:59:11;;;;;;;9.43;1.30;;;7.50;99.90;;;;;;4968779;28;20099;-72
2022/04/05 08:01:36;;;;;;;8.38;0.80;;;7.60;99.90;;;;;;4970014;28;20054;-72
2022/04/05 08:04:02;;;;;;;5.65;1.00;;;7.60;99.90;;;;;;4956739;28;20035;-72
2022/04/05 08:06:28;;;;;;;3.00;0.95;;;7.60;99.90;;;;;;4975037;28;20022;-72
2022/04/05 08:08:54;;;;;;;2.17;0.90;;;7.60;99.90;;;;;;4987742;28;20038;-73
2022/04/05 08:11:21;;;;;;;5.13;1.20;;;7.60;99.90;;;;;;4982973;28;20078;-71
2022/04/05 08:13:46;;;;;;;0.55;0.30;;;7.60;99.90;;;;;;4987779;28;20023;-73
2022/04/05 08:16:12;;;;;;;3.38;1.17;;;7.60;99.90;;;;;;4967765;28;20026;-71
2022/04/05 08:18:37;;;;;;;4.88;1.05;;;7.70;99.90;;;;;;4977490;28;20054;-72
2022/04/05 08:21:03;;;;;;;6.28;1.45;;;7.80;99.90;;;;;;4967179;28;20028;-71
2022/04/05 08:23:29;;;;;;;1.08;0.40;;;7.80;99.90;;;;;;4985783;28;20030;-73
2022/04/05 08:25:54;;;;;;;6.35;0.90;;;7.80;99.90;;;;;;4977876;28;20027;-73
2022/04/05 08:28:20;;;;;;;5.05;1.75;;;7.80;99.90;;;;;;4964015;28;20047;-74
2022/04/05 08:30:47;;;;;;;3.47;0.82;;;7.80;99.90;;;;;;4977888;28;20063;-71
2022/04/05 08:33:13;;;;;;;4.25;1.40;;;7.90;99.90;;;;;;4976612;28;20050;-71
2022/04/05 08:35:39;;;;;;;4.40;2.25;;;7.90;99.90;;;;;;4950930;28;20027;-72
2022/04/05 08:38:06;;;;;;;3.15;0.95;;;7.80;99.90;;;;;;4967967;28;20023;-73
2022/04/05 08:40:32;;;;;;;3.33;0.70;;;7.70;99.90;;;;;;4968224;28;20078;-72
2022/04/05 08:43:03;;;;;;;8.10;1.17;;;7.70;99.90;;;;;;4968717;28;20407;-72
2022/04/05 08:45:29;;;;;;;7.43;1.40;;;7.70;99.90;;;;;;4980012;28;20039;-71
2022/04/05 08:47:57;;;;;;;9.13;1.42;;;7.80;99.90;;;;;;4977873;28;20027;-73
2022/04/05 08:50:31;;;;;;;5.00;0.63;;;7.80;99.90;;;;;;4973884;28;20110;-73
2022/04/05 08:53:00;;;;;;;8.82;1.23;;;7.90;99.90;;;;;;4982129;28;20042;-71
2022/04/05 08:55:28;;;;;;;10.02;1.67;;;7.90;99.90;;;;;;4987496;28;20030;-74
2022/04/05 08:57:54;;;;;;;7.13;1.33;;;7.80;99.90;;;;;;4981953;28;20027;-71
2022/04/05 09:00:21;;;;;;;9.80;1.15;;;7.90;99.90;;;;;;4977978;28;20035;-71
2022/04/05 09:02:55;;;;;;;1.73;0.55;;;7.80;99.90;;;;;;4969117;28;20027;-73
2022/04/05 09:05:34;;;;;;;2.38;0.43;;;7.70;99.90;;;;;;4949667;28;20593;-72
2022/04/05 09:08:23;;;;;;;5.82;1.40;;;7.70;99.90;;;;;;4979550;28;20034;-71
2022/04/05 09:10:54;;;;;;;7.57;1.23;;;7.70;99.90;;;;;;4980070;28;20034;-72
2022/04/05 09:13:25;;;;;;;7.18;1.20;;;7.80;99.90;;;;;;4984819;28;20022;-72
2022/04/05 09:15:52;;;;;;;2.90;0.90;;;7.80;99.90;;;;;;4980117;28;20050;-73
2022/04/05 09:18:44;;;;;;;7.18;1.05;;;7.90;99.90;;;;;;4977712;28;20095;-73
2022/04/05 09:21:14;;;;;;;28.35;2.90;;;8.00;99.90;;;;;;4984572;28;20019;-74
2022/04/05 09:23:52;;;;;;;4.15;1.42;;;8.10;99.90;;;;;;4967853;28;20114;-75
2022/04/05 09:26:18;;;;;;;9.60;0.70;;;8.20;99.90;;;;;;4971315;28;20114;-70
2022/04/05 09:28:47;;;;;;;8.90;0.95;;;8.20;99.90;;;;;;4971258;28;20411;-72
2022/04/05 09:31:18;;;;;;;8.10;1.02;;;8.30;99.90;;;;;;4986575;28;20042;-73
2022/04/05 09:34:16;;;;;;;6.28;0.82;;;8.40;99.90;;;;;;4985950;28;20027;-73
2022/04/05 09:36:45;;;;;;;8.05;1.08;;;8.40;99.90;;;;;;4971405;28;20136;-72
2022/04/05 09:39:19;;;;;;;1.30;0.52;;;8.30;99.90;;;;;;4984888;28;20033;-76
2022/04/05 09:42:08;;;;;;;;;;;8.20;99.90;;;;;;4984693;28;20034;-73
2022/04/05 09:44:40;;;;;;;13.70;1.30;;;8.30;99.90;;;;;;4980561;28;19918;-74
2022/04/05 09:47:14;;;;;;;6.22;1.35;;;8.30;99.90;;;;;;4975979;28;20086;-75
2022/04/05 09:49:44;;;;;;;6.50;0.90;;;8.40;99.90;;;;;;4968037;28;20445;-74
2022/04/05 09:52:31;;;;;;;3.80;0.68;;;8.50;99.90;;;;;;4979959;28;20077;-72
2022/04/05 09:55:17;;;;;;;1.85;0.98;;;8.40;99.90;;;;;;4981449;28;20037;-74
2022/04/05 09:57:49;;;;;;;2.88;1.52;;;8.40;99.90;;;;;;4982582;28;20070;-73
2022/04/05 10:00:19;;;;;;;7.82;1.42;;;8.40;99.90;;;;;;4981600;28;20042;-73
2022/04/05 10:03:04;;;;;;;2.67;0.80;;;8.50;99.90;;;;;;4976079;28;20553;-73
2022/04/05 10:05:31;;;;;;;3.08;0.75;;;8.60;99.90;;;;;;4976077;28;20495;-72
2022/04/05 10:07:57;;;;;;;4.60;1.13;;;8.80;99.90;;;;;;4982417;28;20072;-71
2022/04/05 10:10:24;;;;;;;2.40;1.02;;;8.80;99.90;;;;;;4984196;28;20034;-73
2022/04/05 10:12:54;;;;;;;9.32;1.80;;;8.70;99.90;;;;;;4982790;28;20038;-74
2022/04/05 10:15:21;;;;;;;4.32;1.13;;;8.60;99.90;;;;;;4984537;28;20031;-73
2022/04/05 10:17:51;;;;;;;4.95;1.42;;;8.50;99.90;;;;;;4980836;28;20030;-72
2022/04/05 10:20:18;;;;;;;7.65;1.20;;;8.50;99.90;;;;;;4970912;28;20022;-74
2022/04/05 10:22:51;;;;;;;5.10;0.95;;;8.50;99.90;;;;;;4978017;28;20030;-70
2022/04/05 10:25:17;;;;;;;2.77;1.00;;;8.40;99.90;;;;;;4983578;28;20050;-73
2022/04/05 10:27:50;;;;;;;1.67;1.00;;;8.40;99.90;;;;;;4978184;28;20054;-72
2022/04/05 10:30:27;;;;;;;2.10;1.17;;;8.40;99.90;;;;;;4982269;28;20089;-72
2022/04/05 10:33:06;;;;;;;2.25;0.98;;;8.30;99.90;;;;;;4984424;28;20553;-72
2022/04/05 10:35:38;;;;;;;4.20;1.48;;;8.20;99.90;;;;;;4985612;28;20022;-71
2022/04/05 10:38:17;;;;;;;3.53;1.58;;;8.20;99.90;;;;;;4989593;28;20027;-73
2022/04/05 10:41:14;;;;;;;13.32;1.85;;;8.30;99.90;;;;;;4989503;28;20064;-74
2022/04/05 10:43:43;;;;;;;1.20;0.77;;;8.30;99.90;;;;;;4991689;28;20093;-71
2022/04/05 10:46:10;;;;;;;3.30;1.15;;;8.30;99.90;;;;;;5004860;28;20022;-72
2022/04/05 10:48:37;;;;;;;2.50;0.55;;;8.40;99.90;;;;;;4989705;28;20027;-71
2022/04/05 10:51:03;;;;;;;3.63;1.05;;;8.40;99.90;;;;;;4971676;28;20098;-72
2022/04/05 10:53:33;;;;;;;6.03;1.38;;;8.50;99.90;;;;;;4991791;28;20030;-71
2022/04/05 10:56:07;;;;;;;0.52;0.47;;;8.40;99.90;;;;;;5008899;28;20140;-72
2022/04/05 10:58:38;;;;;;;3.85;1.20;;;8.50;99.90;;;;;;5008269;28;20921;-72
2022/04/05 11:01:14;;;;;;;7.18;1.15;;;8.60;99.90;;;;;;5005580;28;20023;-71
2022/04/05 11:03:40;;;;;;;4.43;0.95;;;8.60;99.90;;;;;;4994636;28;20057;-71
2022/04/05 11:06:07;;;;;;;0.50;0.43;;;8.70;99.90;;;;;;4974389;28;20161;-70
2022/04/05 11:08:33;;;;;;;1.25;0.68;;;8.70;99.90;;;;;;4992808;28;20026;-72
2022/04/05 11:11:05;;;;;;;3.00;0.70;;;8.80;99.90;;;;;;4988943;28;20023;-71
2022/04/05 11:13:33;;;;;;;2.10;0.63;;;9.00;99.90;;;;;;5006289;28;20493;-70
2022/04/05 11:16:00;;;;;;;0.68;0.52;;;9.00;99.90;;;;;;5008645;28;20360;-71
2022/04/05 11:18:33;;;;;;;7.90;1.35;;;9.10;99.90;;;;;;4994915;28;20031;-72
2022/04/05 11:21:06;;;;;;;5.55;1.27;;;9.10;99.90;;;;;;4988360;28;20033;-73
2022/04/05 11:23:53;;;;;;;1.75;0.75;;;9.00;99.90;;;;;;4978999;28;20083;-72
2022/04/05 11:26:35;;;;;;;3.03;0.80;;;9.10;99.90;;;;;;4969147;28;20057;-71
2022/04/05 11:29:20;;;;;;;13.45;1.63;;;9.30;99.90;;;;;;4979610;28;20051;-71
2022/04/05 11:31:46;;;;;;;;;;;9.30;99.90;;;;;;4962796;28;20083;-72
2022/04/05 11:34:33;;;;;;;0.85;0.85;;;9.30;99.90;;;;;;4969229;28;19906;-71
2022/04/05 11:36:59;;;;;;;2.20;0.90;;;9.20;99.90;;;;;;4952023;29;20031;-70
2022/04/05 11:39:24;;;;;;;2.78;0.90;;;9.10;99.90;;;;;;4969299;28;20090;-72
2022/04/05 11:42:00;;;;;;;2.33;0.77;;;9.00;99.90;;;;;;4982412;28;20570;-71
2022/04/05 11:44:27;;;;;;;1.75;1.35;;;9.00;99.90;;;;;;4977391;28;20126;-70
2022/04/05 11:46:57;;;;;;;3.33;1.50;;;8.90;99.90;;;;;;4955927;28;20030;-73
2022/04/05 11:49:22;;;;;;;5.78;1.55;;;8.90;99.90;;;;;;4970938;28;20149;-72
2022/04/05 11:51:49;;;;;;;4.43;1.63;;;8.80;99.90;;;;;;4988544;28;20041;-70
2022/04/05 11:54:22;;;;;;;6.15;1.58;;;8.90;99.90;;;;;;4968673;28;20027;-71
2022/04/05 11:56:48;;;;;;;5.17;1.57;;;8.90;99.90;;;;;;4986047;28;20433;-71
2022/04/05 11:59:16;;;;;;;3.20;1.27;;;8.90;99.90;;;;;;4988229;28;20471;-71
2022/04/05 12:01:48;;;;;;;2.65;1.58;;;8.90;99.90;;;;;;4987745;28;20034;-72
2022/04/05 12:04:20;;;;;;;6.78;1.33;;;8.80;99.90;;;;;;4988016;28;20043;-71
2022/04/05 12:06:48;;;;;;;2.85;0.98;;;8.90;99.90;;;;;;4969507;28;20379;-71
2022/04/05 12:09:17;;;;;;;2.83;1.30;;;9.00;99.90;;;;;;4986249;28;20019;-71
2022/04/05 12:11:46;;;;;;;10.73;1.88;;;9.10;99.90;;;;;;4969648;28;20023;-73
2022/04/05 12:14:14;;;;;;;3.22;1.48;;;9.40;99.90;;;;;;4987491;28;20025;-71
2022/04/05 12:16:53;;;;;;;6.68;1.58;;;9.60;99.90;;;;;;4969771;28;20600;-71
2022/04/05 12:19:32;;;;;;;1.80;1.15;;;9.80;99.90;;;;;;4986608;28;20047;-72
2022/04/05 12:22:05;;;;;;;6.18;1.75;;;9.80;99.90;;;;;;4986975;28;20042;-73
2022/04/05 12:24:32;;;;;;;3.90;1.67;;;9.80;99.90;;;;;;4986470;28;20054;-73
2022/04/05 12:27:00;;;;;;;1.92;1.20;;;9.70;99.90;;;;;;4969230;28;20117;-73
2022/04/05 12:29:27;;;;;;;2.58;1.30;;;9.70;99.90;;;;;;4976325;28;20055;-73
2022/04/05 12:31:54;;;;;;;9.90;1.60;;;9.70;99.90;;;;;;4987638;28;20026;-74
2022/04/05 12:34:20;;;;;;;2.85;1.25;;;9.60;99.90;;;;;;4975929;28;20603;-72
2022/04/05 12:36:47;;;;;;;4.07;1.38;;;9.50;99.90;;;;;;4987313;28;20023;-73
2022/04/05 12:39:18;;;;;;;6.63;1.60;;;9.50;99.90;;;;;;4994296;28;20027;-72
2022/04/05 12:41:46;;;;;;;2.67;1.42;;;9.50;99.90;;;;;;5006941;28;20035;-72
2022/04/05 12:44:17;;;;;;;7.78;1.73;;;9.50;99.90;;;;;;4996062;28;20077;-73
2022/04/05 12:46:52;;;;;;;4.65;1.65;;;9.40;99.90;;;;;;4970281;28;20035;-70
2022/04/05 12:49:26;;;;;;;5.95;1.05;;;9.30;99.90;;;;;;4987291;28;20023;-73
2022/04/05 12:51:53;;;;;;;2.33;1.25;;;9.20;99.90;;;;;;4987036;28;20023;-72
2022/04/05 12:54:27;;;;;;;3.75;1.10;;;9.10;99.90;;;;;;4987272;28;20027;-73
2022/04/05 12:56:53;;;;;;;3.08;1.77;;;9.00;99.90;;;;;;4987055;28;20054;-71
2022/04/05 12:59:26;;;;;;;3.92;1.63;;;9.00;99.90;;;;;;4986429;28;20031;-72
2022/04/05 13:01:57;;;;;;;2.40;1.27;;;9.00;99.90;;;;;;4987050;28;20033;-71